Time;durP1;ratioP1;P1;durP2;ratioP2;P2;SDS_P1;SDS_P2;PMS_P1;PMS_P2;Temp;Humidity;BMP_temperature;BMP_pressure;BME280_temperature;BME280_humidity;BME280_pressure;Samples;Min_cycle;Max_cycle;Signal;HPM_P1;HPM_P2
2021/01/16 00:00:22;;;;;;;3.45;2.92;;;14.60;62.60;;;;;;5014387;28;20029;-49
2021/01/16 00:02:47;;;;;;;3.15;2.58;;;14.50;62.70;;;;;;5014497;28;20385;-49
2021/01/16 00:05:18;;;;;;;4.43;2.60;;;14.50;62.70;;;;;;5014284;28;20018;-50
2021/01/16 00:07:45;;;;;;;3.55;2.70;;;14.50;62.90;;;;;;5014075;28;20604;-49
2021/01/16 00:10:13;;;;;;;3.00;2.70;;;14.40;62.90;;;;;;5014233;28;20026;-48
2021/01/16 00:12:39;;;;;;;2.70;2.50;;;14.40;63.00;;;;;;5014476;28;20096;-50
2021/01/16 00:15:06;;;;;;;3.40;2.30;;;14.40;63.00;;;;;;5014240;28;20038;-49
2021/01/16 00:17:32;;;;;;;2.80;2.40;;;14.40;63.10;;;;;;5013757;28;20041;-47
2021/01/16 00:19:58;;;;;;;3.67;2.70;;;;;;;;;;5013638;28;20037;-49
2021/01/16 00:22:23;;;;;;;2.90;2.55;;;14.40;62.70;;;;;;5013563;28;20026;-49
2021/01/16 00:24:49;;;;;;;3.08;2.05;;;14.40;63.30;;;;;;5013603;28;20032;-48
2021/01/16 00:27:15;;;;;;;3.97;2.42;;;14.30;63.30;;;;;;5013883;28;20097;-49
2021/01/16 00:29:40;;;;;;;2.90;2.60;;;14.40;63.40;;;;;;5013836;28;20018;-49
2021/01/16 00:32:06;;;;;;;3.00;2.70;;;14.30;63.40;;;;;;5013697;28;20638;-49
2021/01/16 00:34:31;;;;;;;2.35;2.15;;;14.30;63.50;;;;;;5014714;28;20054;-48
2021/01/16 00:36:57;;;;;;;2.92;2.10;;;14.20;63.60;;;;;;4996150;28;20053;-50
2021/01/16 00:39:22;;;;;;;4.40;2.38;;;14.40;63.50;;;;;;5013336;28;20084;-50
2021/01/16 00:41:48;;;;;;;2.38;2.17;;;14.30;63.70;;;;;;5013494;28;20033;-50
2021/01/16 00:44:14;;;;;;;2.58;2.08;;;14.20;63.60;;;;;;5013427;28;20025;-49
2021/01/16 00:46:39;;;;;;;2.97;2.63;;;14.20;63.60;;;;;;5013770;28;20018;-49
2021/01/16 00:49:05;;;;;;;2.35;2.03;;;14.20;63.70;;;;;;5013439;28;20018;-48
2021/01/16 00:51:31;;;;;;;2.60;2.20;;;14.20;63.80;;;;;;5013462;28;20377;-47
2021/01/16 00:53:56;;;;;;;2.83;2.53;;;14.10;63.80;;;;;;4996118;28;20022;-48
2021/01/16 00:56:22;;;;;;;2.40;2.20;;;14.10;63.80;;;;;;5013599;28;20024;-48
2021/01/16 00:58:47;;;;;;;3.90;2.58;;;14.10;63.80;;;;;;4995576;28;20627;-48
2021/01/16 01:01:13;;;;;;;2.63;2.28;;;14.10;63.80;;;;;;5013243;28;20093;-49
2021/01/16 01:03:38;;;;;;;2.05;1.95;;;14.10;63.90;;;;;;5013200;28;20511;-49
2021/01/16 01:06:04;;;;;;;2.25;2.03;;;14.10;64.00;;;;;;5013362;28;20022;-48
2021/01/16 01:08:30;;;;;;;3.00;2.17;;;14.00;64.00;;;;;;5012709;28;20480;-49
2021/01/16 01:10:56;;;;;;;2.20;2.00;;;14.00;64.00;;;;;;5013087;28;20425;-48
2021/01/16 01:13:22;;;;;;;2.20;2.00;;;14.10;64.20;;;;;;5012853;28;20117;-49
2021/01/16 01:15:48;;;;;;;2.97;2.53;;;14.00;64.00;;;;;;5013215;28;20064;-48
2021/01/16 01:18:14;;;;;;;2.72;2.53;;;14.00;64.10;;;;;;5012999;28;20022;-48
2021/01/16 01:20:40;;;;;;;3.42;2.33;;;14.00;64.80;;;;;;5013003;28;20101;-49
2021/01/16 01:23:05;;;;;;;2.38;2.10;;;13.90;64.10;;;;;;5012978;28;20506;-48
2021/01/16 01:25:31;;;;;;;2.60;2.40;;;14.00;64.20;;;;;;5013057;28;20022;-48
2021/01/16 01:27:59;;;;;;;2.40;2.20;;;13.90;64.10;;;;;;5012990;28;20472;-48
2021/01/16 01:30:27;;;;;;;2.00;1.80;;;14.00;64.20;;;;;;5012666;28;20030;-49
2021/01/16 01:32:53;;;;;;;3.00;2.20;;;13.90;64.30;;;;;;5013054;28;20381;-48
2021/01/16 01:35:20;;;;;;;2.55;2.30;;;13.90;64.40;;;;;;5013961;28;20046;-49
2021/01/16 01:37:51;;;;;;;2.47;2.15;;;13.70;64.10;;;;;;5012729;28;20472;-50
2021/01/16 01:40:18;;;;;;;2.40;2.10;;;13.90;64.40;;;;;;5005447;28;20117;-47
2021/01/16 01:42:52;;;;;;;3.05;2.38;;;13.90;64.50;;;;;;5012776;28;20026;-49
2021/01/16 01:45:18;;;;;;;2.15;2.03;;;13.80;64.40;;;;;;5012772;28;20022;-48
2021/01/16 01:47:46;;;;;;;2.60;2.40;;;13.80;64.30;;;;;;5012341;28;20022;-49
2021/01/16 01:50:14;;;;;;;2.25;2.05;;;13.80;64.40;;;;;;5012204;28;20030;-49
2021/01/16 01:52:40;;;;;;;2.30;2.10;;;13.80;64.30;;;;;;5012387;28;20022;-48
2021/01/16 01:55:08;;;;;;;2.72;2.30;;;13.80;64.40;;;;;;5012461;28;20160;-48
2021/01/16 01:57:37;;;;;;;3.10;2.20;;;13.60;79.10;;;;;;5012258;28;20093;-48
2021/01/16 02:00:06;;;;;;;2.20;2.00;;;13.70;64.50;;;;;;5012245;28;20179;-48
2021/01/16 02:02:34;;;;;;;2.28;2.08;;;13.70;64.40;;;;;;5012215;28;20033;-48
2021/01/16 02:05:01;;;;;;;2.03;1.92;;;13.80;64.40;;;;;;5012148;28;20105;-47
2021/01/16 02:07:28;;;;;;;2.40;1.98;;;13.70;64.40;;;;;;5012485;28;20423;-49
2021/01/16 02:09:55;;;;;;;2.63;2.13;;;13.80;64.50;;;;;;5012217;28;20030;-48
2021/01/16 02:12:22;;;;;;;2.65;2.17;;;13.70;64.50;;;;;;5012151;28;20030;-48
2021/01/16 02:15:02;;;;;;;2.10;1.83;;;13.70;64.60;;;;;;5012496;28;20113;-50
2021/01/16 02:17:29;;;;;;;2.45;1.92;;;13.70;64.40;;;;;;5012466;28;20036;-50
2021/01/16 02:20:11;;;;;;;2.25;2.00;;;13.70;64.20;;;;;;5012914;28;20408;-48
2021/01/16 02:22:54;;;;;;;2.30;2.10;;;13.70;64.40;;;;;;5018923;28;20092;-49
2021/01/16 02:25:41;;;;;;;2.00;1.80;;;13.70;64.00;;;;;;5018265;28;20018;-49
2021/01/16 02:28:09;;;;;;;2.40;2.00;;;13.80;64.10;;;;;;5018610;28;20040;-48
2021/01/16 02:30:37;;;;;;;1.98;1.70;;;13.80;63.50;;;;;;5018594;28;20078;-51
2021/01/16 02:33:06;;;;;;;1.80;1.70;;;13.80;63.30;;;;;;5018531;28;20036;-49
2021/01/16 02:35:35;;;;;;;1.90;1.80;;;13.90;64.10;;;;;;5019381;28;20046;-49
2021/01/16 02:38:33;;;;;;;2.10;1.92;;;13.90;63.90;;;;;;5018312;28;20076;-51
2021/01/16 02:41:37;;;;;;;2.30;2.10;;;13.90;63.40;;;;;;5018538;28;20034;-48
2021/01/16 02:44:41;;;;;;;2.17;1.98;;;13.90;63.70;;;;;;4997131;28;20038;-50
2021/01/16 02:47:20;;;;;;;2.53;1.90;;;13.90;64.10;;;;;;5018708;28;20080;-49
2021/01/16 02:49:59;;;;;;;1.92;1.80;;;13.90;64.90;;;;;;5018634;28;20140;-48
2021/01/16 02:52:28;;;;;;;1.90;1.80;;;13.90;63.40;;;;;;5000812;28;20028;-48
2021/01/16 02:54:55;;;;;;;2.25;1.83;;;14.00;64.50;;;;;;5018312;28;20465;-48
2021/01/16 02:57:21;;;;;;;2.13;1.95;;;14.00;78.70;;;;;;5018239;28;20026;-47
2021/01/16 02:59:47;;;;;;;2.08;1.80;;;14.00;64.60;;;;;;5018291;28;20060;-48
2021/01/16 03:02:15;;;;;;;2.13;1.83;;;14.00;64.10;;;;;;5018729;28;20037;-48
2021/01/16 03:04:41;;;;;;;1.65;1.55;;;14.00;64.70;;;;;;5018471;28;20157;-48
2021/01/16 03:07:10;;;;;;;2.42;1.80;;;14.00;64.70;;;;;;5018238;28;20034;-49
2021/01/16 03:09:38;;;;;;;2.40;2.05;;;14.10;64.90;;;;;;5018398;28;20540;-48
2021/01/16 03:12:05;;;;;;;1.80;1.60;;;14.00;64.50;;;;;;5018267;28;20072;-47
2021/01/16 03:14:58;;;;;;;1.63;1.52;;;14.10;64.80;;;;;;5018542;28;20483;-48
2021/01/16 03:17:44;;;;;;;2.00;1.45;;;14.10;64.90;;;;;;5005043;28;20033;-50
2021/01/16 03:20:37;;;;;;;2.08;1.98;;;14.10;65.10;;;;;;5017469;28;20041;-49
2021/01/16 03:23:03;;;;;;;2.40;1.67;;;14.10;64.60;;;;;;5013225;28;20037;-47
2021/01/16 03:25:30;;;;;;;1.60;1.50;;;14.00;64.90;;;;;;5017920;28;20029;-48
2021/01/16 03:27:57;;;;;;;2.00;1.90;;;14.10;64.90;;;;;;5018290;28;20042;-49
2021/01/16 03:30:24;;;;;;;1.98;1.83;;;14.10;65.10;;;;;;5018254;28;20509;-49
2021/01/16 03:32:51;;;;;;;1.60;1.50;;;14.10;64.90;;;;;;5015055;28;20025;-47
2021/01/16 03:35:20;;;;;;;2.38;1.90;;;14.10;65.10;;;;;;5015972;28;20088;-48
2021/01/16 03:37:46;;;;;;;1.92;1.70;;;14.10;65.10;;;;;;5015004;28;20723;-49
2021/01/16 03:40:14;;;;;;;1.83;1.63;;;14.10;65.10;;;;;;5015035;28;20092;-48
2021/01/16 03:42:40;;;;;;;2.47;1.60;;;14.10;64.70;;;;;;5014725;28;20025;-48
2021/01/16 03:45:09;;;;;;;2.13;1.80;;;14.10;65.20;;;;;;5014966;28;20056;-48
2021/01/16 03:47:35;;;;;;;1.85;1.48;;;14.10;65.10;;;;;;5014905;28;20022;-48
2021/01/16 03:50:01;;;;;;;1.88;1.67;;;14.10;65.20;;;;;;5014558;28;20066;-48
2021/01/16 03:52:31;;;;;;;1.83;1.63;;;14.10;64.60;;;;;;5014831;28;20037;-48
2021/01/16 03:54:57;;;;;;;1.98;1.77;;;14.10;65.10;;;;;;5014761;28;20029;-49
2021/01/16 03:57:24;;;;;;;2.13;1.80;;;14.10;65.10;;;;;;5014695;28;20034;-48
2021/01/16 03:59:50;;;;;;;1.75;1.63;;;14.00;65.00;;;;;;5014712;28;20034;-48
2021/01/16 04:02:17;;;;;;;1.73;1.63;;;14.10;64.80;;;;;;5014466;28;20026;-48
2021/01/16 04:04:43;;;;;;;1.63;1.52;;;14.10;65.20;;;;;;5014694;28;20029;-49
2021/01/16 04:07:08;;;;;;;2.15;1.63;;;14.10;65.10;;;;;;5014315;28;20018;-49
2021/01/16 04:09:34;;;;;;;1.80;1.70;;;14.10;64.90;;;;;;4997095;28;20033;-48
2021/01/16 04:12:00;;;;;;;1.70;1.45;;;14.10;65.10;;;;;;5014471;28;20032;-48
2021/01/16 04:14:26;;;;;;;2.35;2.15;;;14.10;65.20;;;;;;5014346;28;20457;-49
2021/01/16 04:16:51;;;;;;;2.30;2.08;;;14.00;65.30;;;;;;5013868;28;20101;-49
2021/01/16 04:19:17;;;;;;;2.08;1.75;;;14.00;65.20;;;;;;5013736;28;20034;-50
2021/01/16 04:21:44;;;;;;;1.70;1.60;;;14.00;65.10;;;;;;5014209;28;20521;-48
2021/01/16 04:24:09;;;;;;;2.03;1.58;;;14.00;65.30;;;;;;5013932;28;20080;-48
2021/01/16 04:26:35;;;;;;;2.17;1.73;;;14.00;65.40;;;;;;5014107;28;20034;-49
2021/01/16 04:29:01;;;;;;;1.73;1.63;;;14.00;65.20;;;;;;5013859;28;20123;-49
2021/01/16 04:31:26;;;;;;;1.95;1.77;;;14.00;65.00;;;;;;5014101;28;20080;-48
2021/01/16 04:33:52;;;;;;;1.70;1.60;;;14.00;65.20;;;;;;5014741;28;20410;-50
2021/01/16 04:36:17;;;;;;;2.22;1.83;;;13.90;65.40;;;;;;5013816;28;20026;-50
2021/01/16 04:38:43;;;;;;;1.75;1.65;;;13.90;65.20;;;;;;5013506;28;20114;-48
2021/01/16 04:41:09;;;;;;;1.95;1.75;;;13.90;65.00;;;;;;5013688;28;20456;-49
2021/01/16 04:43:35;;;;;;;1.98;1.73;;;13.90;65.10;;;;;;5012382;28;20496;-48
2021/01/16 04:46:09;;;;;;;1.85;1.70;;;13.90;65.20;;;;;;5013005;28;20087;-49
2021/01/16 04:48:36;;;;;;;2.00;1.80;;;13.90;65.30;;;;;;5013401;28;20365;-51
2021/01/16 04:51:04;;;;;;;2.30;2.10;;;13.90;65.00;;;;;;5013250;28;20022;-50
2021/01/16 04:53:41;;;;;;;2.00;1.80;;;13.90;65.10;;;;;;5012912;28;20468;-50
2021/01/16 04:56:08;;;;;;;1.92;1.70;;;14.00;65.20;;;;;;5013175;28;20030;-48
2021/01/16 04:58:36;;;;;;;1.40;1.30;;;13.90;65.30;;;;;;5013300;28;20042;-49
2021/01/16 05:01:06;;;;;;;1.60;1.50;;;13.90;65.00;;;;;;5013450;28;20033;-49
2021/01/16 05:03:42;;;;;;;1.73;1.63;;;13.90;64.90;;;;;;5013183;28;20102;-49
2021/01/16 05:06:10;;;;;;;1.55;1.45;;;13.90;65.20;;;;;;4995343;28;20116;-48
2021/01/16 05:08:40;;;;;;;2.03;1.80;;;13.90;65.30;;;;;;5013135;28;20073;-47
2021/01/16 05:11:25;;;;;;;1.67;1.58;;;13.90;65.00;;;;;;5013261;28;20077;-49
2021/01/16 05:14:16;;;;;;;1.98;1.80;;;13.90;65.00;;;;;;5012992;28;20106;-48
2021/01/16 05:16:58;;;;;;;1.65;1.55;;;13.80;65.20;;;;;;4995392;28;20025;-49
2021/01/16 05:19:27;;;;;;;2.63;1.90;;;13.80;65.10;;;;;;5013100;28;20030;-50
2021/01/16 05:21:54;;;;;;;2.63;1.73;;;13.80;65.00;;;;;;5013109;28;20022;-49
2021/01/16 05:24:26;;;;;;;2.10;1.90;;;13.80;65.10;;;;;;5012816;28;20032;-48
2021/01/16 05:27:13;;;;;;;2.10;1.90;;;13.80;65.30;;;;;;5012562;28;20030;-49
2021/01/16 05:29:40;;;;;;;1.70;1.58;;;13.80;65.00;;;;;;5012978;28;20034;-49
2021/01/16 05:32:06;;;;;;;1.65;1.55;;;13.80;65.10;;;;;;5012803;28;20446;-49
2021/01/16 05:34:33;;;;;;;1.85;1.75;;;13.80;65.20;;;;;;5013726;28;20181;-48
2021/01/16 05:36:59;;;;;;;2.10;1.90;;;13.80;65.30;;;;;;5012874;28;20025;-51
2021/01/16 05:39:30;;;;;;;1.92;1.50;;;13.80;65.40;;;;;;5012639;28;20033;-48
2021/01/16 05:41:58;;;;;;;1.52;1.42;;;13.80;65.50;;;;;;5012801;28;20687;-47
2021/01/16 05:44:25;;;;;;;2.25;2.05;;;13.80;65.40;;;;;;5012669;28;20022;-50
2021/01/16 05:46:52;;;;;;;2.33;2.00;;;13.90;65.50;;;;;;5012474;28;20691;-48
2021/01/16 05:49:21;;;;;;;1.80;1.70;;;13.80;65.30;;;;;;5012382;28;20594;-48
2021/01/16 05:51:46;;;;;;;1.98;1.77;;;13.80;65.10;;;;;;5012557;28;20022;-49
2021/01/16 05:54:19;;;;;;;1.80;1.60;;;13.80;65.20;;;;;;5012553;28;20389;-49
2021/01/16 05:56:46;;;;;;;2.25;2.00;;;13.80;65.10;;;;;;5011950;28;20033;-49
2021/01/16 05:59:16;;;;;;;2.60;1.95;;;13.70;64.90;;;;;;5012259;28;20527;-50
2021/01/16 06:01:44;;;;;;;;;;;13.70;65.00;;;;;;5012634;28;20033;-50
2021/01/16 06:04:15;;;;;;;2.15;1.95;;;13.70;65.20;;;;;;5012327;28;19945;-49
2021/01/16 06:06:40;;;;;;;2.17;1.98;;;13.70;65.60;;;;;;5012180;28;20022;-50
2021/01/16 06:09:19;;;;;;;1.75;1.65;;;13.70;66.00;;;;;;5012462;28;20033;-49
2021/01/16 06:11:49;;;;;;;2.10;1.88;;;13.80;65.80;;;;;;5012355;28;20385;-49
2021/01/16 06:14:16;;;;;;;2.22;1.75;;;13.80;65.40;;;;;;5012085;28;20022;-48
2021/01/16 06:16:49;;;;;;;1.73;1.63;;;13.90;65.50;;;;;;5012046;28;20048;-50
2021/01/16 06:19:18;;;;;;;1.80;1.70;;;13.90;65.60;;;;;;5012362;28;20065;-49
2021/01/16 06:21:45;;;;;;;2.08;1.92;;;14.00;65.50;;;;;;5012489;28;20022;-48
2021/01/16 06:24:23;;;;;;;1.52;1.42;;;14.00;65.30;;;;;;5012443;28;20116;-50
2021/01/16 06:26:57;;;;;;;2.10;1.90;;;14.10;65.20;;;;;;4994470;28;20026;-48
2021/01/16 06:29:36;;;;;;;2.33;2.13;;;14.20;65.40;;;;;;5012315;28;20049;-48
2021/01/16 06:32:04;;;;;;;2.17;1.98;;;14.20;65.60;;;;;;5012227;28;20384;-49
2021/01/16 06:34:33;;;;;;;1.83;1.60;;;14.20;65.20;;;;;;5013279;28;20077;-47
2021/01/16 06:37:13;;;;;;;1.60;1.50;;;14.30;65.40;;;;;;5012247;28;20040;-50
2021/01/16 06:39:43;;;;;;;2.42;1.92;;;14.30;65.50;;;;;;5011753;28;20476;-48
2021/01/16 06:42:12;;;;;;;;;;;14.30;65.50;;;;;;5012477;28;20026;-48
2021/01/16 06:44:40;;;;;;;2.75;1.42;;;14.40;65.50;;;;;;5011830;28;19909;-49
2021/01/16 06:47:06;;;;;;;1.85;1.70;;;14.50;65.60;;;;;;5011989;28;20049;-48
2021/01/16 06:49:32;;;;;;;1.48;1.35;;;14.50;65.30;;;;;;5011981;28;20026;-49
2021/01/16 06:52:02;;;;;;;1.67;1.58;;;14.50;65.50;;;;;;5012034;28;20026;-50
2021/01/16 06:54:38;;;;;;;1.88;1.73;;;14.50;65.40;;;;;;5012045;28;20035;-49
2021/01/16 06:57:08;;;;;;;2.38;2.10;;;14.60;65.40;;;;;;5011640;28;20108;-48
2021/01/16 06:59:38;;;;;;;2.03;1.90;;;14.60;65.40;;;;;;5011937;28;20509;-49
2021/01/16 07:02:22;;;;;;;;;;;14.60;65.30;;;;;;5012133;28;20088;-48
2021/01/16 07:04:57;;;;;;;2.17;1.98;;;14.70;65.30;;;;;;5011600;28;19910;-50
2021/01/16 07:07:33;;;;;;;2.55;1.83;;;14.70;65.30;;;;;;5012753;28;20022;-48
2021/01/16 07:10:20;;;;;;;2.53;1.85;;;14.70;65.30;;;;;;5015349;28;20469;-48
2021/01/16 07:12:51;;;;;;;1.90;1.70;;;14.70;65.20;;;;;;5015341;28;20026;-50
2021/01/16 07:15:18;;;;;;;2.40;2.13;;;14.70;65.30;;;;;;5015287;28;20022;-48
2021/01/16 07:17:45;;;;;;;1.95;1.75;;;14.70;65.30;;;;;;5015501;28;20018;-50
2021/01/16 07:20:11;;;;;;;2.65;1.83;;;14.80;65.30;;;;;;5015082;28;20065;-49
2021/01/16 07:22:41;;;;;;;2.40;2.00;;;14.80;65.30;;;;;;5015375;28;20053;-48
2021/01/16 07:25:12;;;;;;;2.38;1.77;;;14.80;65.20;;;;;;5015346;28;20455;-48
2021/01/16 07:27:38;;;;;;;2.25;1.95;;;14.80;65.10;;;;;;5015195;28;20112;-48
2021/01/16 07:30:06;;;;;;;2.17;1.98;;;14.80;65.10;;;;;;5015129;28;20042;-48
2021/01/16 07:32:36;;;;;;;2.10;1.88;;;14.80;65.00;;;;;;5014621;28;20393;-50
2021/01/16 07:35:03;;;;;;;2.13;1.83;;;14.80;64.80;;;;;;4998318;28;20175;-49
2021/01/16 07:37:30;;;;;;;2.45;1.77;;;14.80;64.70;;;;;;5014599;28;20034;-48
2021/01/16 07:39:57;;;;;;;2.55;2.08;;;14.80;64.50;;;;;;5014485;28;20488;-49
2021/01/16 07:42:25;;;;;;;3.03;2.25;;;14.80;64.50;;;;;;5014898;28;20026;-49
2021/01/16 07:45:07;;;;;;;3.60;2.50;;;14.80;65.20;;;;;;5014378;28;20535;-49
2021/01/16 07:47:41;;;;;;;2.30;2.10;;;14.80;64.40;;;;;;5014875;28;20018;-49
2021/01/16 07:50:27;;;;;;;2.20;1.98;;;14.80;64.60;;;;;;5014510;28;20526;-48
2021/01/16 07:53:01;;;;;;;4.85;2.10;;;14.80;64.50;;;;;;5014683;28;20026;-50
2021/01/16 07:55:45;;;;;;;2.30;2.10;;;14.70;64.40;;;;;;5014568;28;20110;-51
2021/01/16 07:58:40;;;;;;;2.22;2.03;;;14.70;64.70;;;;;;4997228;28;20034;-51
2021/01/16 08:01:15;;;;;;;2.22;2.03;;;14.70;64.60;;;;;;4998033;28;20436;-50
2021/01/16 08:04:03;;;;;;;2.50;2.20;;;14.70;64.70;;;;;;5014052;28;20061;-49
2021/01/16 08:06:31;;;;;;;3.35;2.30;;;14.60;64.30;;;;;;5014115;28;20025;-49
2021/01/16 08:09:17;;;;;;;2.17;1.98;;;14.60;64.40;;;;;;5014208;28;20029;-50
2021/01/16 08:11:50;;;;;;;2.67;2.20;;;14.60;64.40;;;;;;5014388;28;20058;-48
2021/01/16 08:14:20;;;;;;;3.15;2.40;;;14.60;64.30;;;;;;5013956;28;20432;-48
2021/01/16 08:16:50;;;;;;;2.53;2.33;;;14.50;64.50;;;;;;5014041;28;20048;-50
2021/01/16 08:19:38;;;;;;;4.00;2.28;;;14.60;64.40;;;;;;5013705;28;20088;-48
2021/01/16 08:22:17;;;;;;;2.88;2.55;;;14.60;64.20;;;;;;5013738;28;20024;-48
2021/01/16 08:25:02;;;;;;;3.50;2.60;;;14.50;64.10;;;;;;5014128;28;20030;-47
2021/01/16 08:27:32;;;;;;;2.50;2.30;;;14.50;64.00;;;;;;5014115;28;20029;-48
2021/01/16 08:30:04;;;;;;;3.08;2.53;;;14.50;64.00;;;;;;5014029;28;20037;-48
2021/01/16 08:32:30;;;;;;;3.95;2.25;;;14.50;64.70;;;;;;5013936;28;20017;-48
2021/01/16 08:35:01;;;;;;;4.78;2.70;;;14.50;64.30;;;;;;5014734;28;20050;-49
2021/01/16 08:37:35;;;;;;;9.30;2.70;;;14.50;65.00;;;;;;5014020;28;20421;-48
2021/01/16 08:40:04;;;;;;;4.88;2.70;;;14.60;64.90;;;;;;5013605;28;20045;-47
2021/01/16 08:42:30;;;;;;;5.40;2.95;;;14.70;64.70;;;;;;5013365;28;20025;-48
2021/01/16 08:44:57;;;;;;;4.25;2.83;;;14.70;64.60;;;;;;5013731;28;20384;-51
2021/01/16 08:47:24;;;;;;;5.95;3.00;;;14.70;64.70;;;;;;5013733;28;20483;-48
2021/01/16 08:49:50;;;;;;;4.25;2.90;;;14.80;64.60;;;;;;5013673;28;20397;-47
2021/01/16 08:52:33;;;;;;;6.95;3.05;;;14.90;64.30;;;;;;5013558;28;20522;-48
2021/01/16 08:55:03;;;;;;;2.67;2.47;;;14.90;64.20;;;;;;5013474;28;20029;-47
2021/01/16 08:57:30;;;;;;;;;;;15.00;64.20;;;;;;5013892;28;20441;-49
2021/01/16 08:59:56;;;;;;;3.33;2.92;;;15.00;63.70;;;;;;5013330;28;20023;-47
2021/01/16 09:02:22;;;;;;;4.95;3.15;;;15.10;63.50;;;;;;5013369;28;20025;-48
2021/01/16 09:04:48;;;;;;;5.45;3.15;;;15.10;63.50;;;;;;5013138;28;20042;-47
2021/01/16 09:07:15;;;;;;;4.05;2.90;;;15.10;63.60;;;;;;5012940;28;20022;-49
2021/01/16 09:09:51;;;;;;;4.13;3.33;;;15.10;63.50;;;;;;5013219;28;20385;-48
2021/01/16 09:12:16;;;;;;;3.97;2.88;;;15.20;63.20;;;;;;5013280;28;20022;-49
2021/01/16 09:14:42;;;;;;;3.92;2.78;;;15.20;62.90;;;;;;5013118;28;20112;-49
2021/01/16 09:17:15;;;;;;;6.05;3.53;;;15.30;63.00;;;;;;5013064;28;20029;-50
2021/01/16 09:19:41;;;;;;;6.57;3.58;;;15.60;62.00;;;;;;5012981;28;20057;-52
2021/01/16 09:22:20;;;;;;;4.47;2.67;;;15.80;61.40;;;;;;5013058;28;20120;-50
2021/01/16 09:24:46;;;;;;;7.35;3.13;;;15.80;61.30;;;;;;5012943;28;20381;-51
2021/01/16 09:27:23;;;;;;;4.13;3.05;;;15.90;61.20;;;;;;5013034;28;20021;-53
2021/01/16 09:29:49;;;;;;;8.18;3.20;;;16.10;61.00;;;;;;5012170;28;20048;-50
2021/01/16 09:32:32;;;;;;;3.58;2.83;;;16.10;60.80;;;;;;5012951;28;20373;-50
2021/01/16 09:34:58;;;;;;;3.85;3.42;;;16.20;60.50;;;;;;5013719;28;20061;-49
2021/01/16 09:37:29;;;;;;;6.15;3.40;;;16.30;60.40;;;;;;5012692;28;20022;-49
2021/01/16 09:40:05;;;;;;;5.60;3.28;;;16.40;60.10;;;;;;5012679;28;20033;-48
2021/01/16 09:42:40;;;;;;;5.57;2.70;;;16.50;59.90;;;;;;5012437;28;20030;-48
2021/01/16 09:45:06;;;;;;;5.50;3.47;;;16.50;59.60;;;;;;5012681;28;20118;-49
2021/01/16 09:47:32;;;;;;;4.07;2.78;;;16.70;59.60;;;;;;5012434;28;20105;-49
2021/01/16 09:50:00;;;;;;;3.97;3.08;;;16.70;59.30;;;;;;5012144;28;20185;-49
2021/01/16 09:52:25;;;;;;;6.70;3.70;;;16.70;59.20;;;;;;5012309;28;20026;-50
2021/01/16 09:54:51;;;;;;;3.65;3.20;;;16.80;59.10;;;;;;5012283;28;20055;-48
2021/01/16 09:57:38;;;;;;;3.08;2.78;;;16.80;58.90;;;;;;5012417;28;20021;-50
2021/01/16 10:00:14;;;;;;;6.68;3.58;;;16.80;58.80;;;;;;5012494;28;20108;-48
2021/01/16 10:02:42;;;;;;;4.38;2.90;;;16.90;58.70;;;;;;5012555;28;20376;-48
2021/01/16 10:05:29;;;;;;;5.03;3.42;;;16.80;58.70;;;;;;5012420;28;20030;-49
2021/01/16 10:07:55;;;;;;;5.50;3.47;;;16.80;58.50;;;;;;4995191;28;20091;-49
2021/01/16 10:10:21;;;;;;;5.13;3.53;;;16.70;58.40;;;;;;5012296;28;20109;-49
2021/01/16 10:12:48;;;;;;;6.50;3.67;;;16.70;58.70;;;;;;5012266;28;20199;-48
2021/01/16 10:15:18;;;;;;;6.65;3.70;;;16.70;58.30;;;;;;5012054;28;20380;-48
2021/01/16 10:17:47;;;;;;;6.10;3.88;;;16.70;58.50;;;;;;5012358;28;20026;-49
2021/01/16 10:20:16;;;;;;;7.53;3.90;;;16.60;58.40;;;;;;5012246;28;20385;-47
2021/01/16 10:22:48;;;;;;;9.02;3.75;;;16.60;58.60;;;;;;5012194;28;20041;-47
2021/01/16 10:25:15;;;;;;;4.50;3.28;;;;;;;;;;5012293;28;20428;-49
2021/01/16 10:27:47;;;;;;;5.88;3.65;;;16.50;57.70;;;;;;5012109;28;20033;-48
2021/01/16 10:30:32;;;;;;;6.28;4.00;;;16.50;57.90;;;;;;5011957;28;20025;-50
2021/01/16 10:32:59;;;;;;;4.90;3.70;;;16.50;58.30;;;;;;5011794;28;20033;-46
2021/01/16 10:35:29;;;;;;;7.30;4.22;;;16.40;57.90;;;;;;5013124;28;20420;-47
2021/01/16 10:37:59;;;;;;;6.63;3.70;;;16.30;57.60;;;;;;5011763;28;20022;-48
2021/01/16 10:40:26;;;;;;;6.57;4.20;;;16.50;57.40;;;;;;5012031;28;20049;-49
2021/01/16 10:42:56;;;;;;;5.88;3.80;;;16.50;58.00;;;;;;5015217;28;20018;-47
2021/01/16 10:45:28;;;;;;;5.32;4.00;;;16.60;58.40;;;;;;5015688;28;20085;-46
2021/01/16 10:47:56;;;;;;;8.77;3.72;;;16.70;59.50;;;;;;5015685;28;20014;-48
2021/01/16 10:50:29;;;;;;;6.70;4.10;;;16.70;59.60;;;;;;5015862;28;20069;-48
2021/01/16 10:53:05;;;;;;;4.93;3.90;;;16.80;60.90;;;;;;5015940;28;20447;-48
2021/01/16 10:55:56;;;;;;;4.35;3.50;;;16.80;61.90;;;;;;5015459;28;20018;-47
2021/01/16 10:58:26;;;;;;;5.63;4.10;;;16.80;62.70;;;;;;5015646;28;20045;-48
2021/01/16 11:00:57;;;;;;;5.40;3.42;;;16.90;64.30;;;;;;5015750;28;20033;-48
2021/01/16 11:03:33;;;;;;;6.53;3.72;;;16.90;65.40;;;;;;5015471;28;20041;-47
2021/01/16 11:06:10;;;;;;;5.47;3.42;;;16.80;66.10;;;;;;5015352;28;20034;-47
2021/01/16 11:08:38;;;;;;;4.75;3.55;;;16.80;66.60;;;;;;5015566;28;20392;-49
2021/01/16 11:11:24;;;;;;;4.25;3.47;;;16.90;66.70;;;;;;5015526;28;20025;-47
2021/01/16 11:13:51;;;;;;;4.70;3.45;;;16.80;66.00;;;;;;5015388;28;20026;-47
2021/01/16 11:16:19;;;;;;;5.18;2.95;;;16.80;67.30;;;;;;5015477;28;20092;-47
2021/01/16 11:18:46;;;;;;;6.80;3.20;;;16.80;66.70;;;;;;5015276;28;20030;-49
2021/01/16 11:21:34;;;;;;;4.22;3.13;;;16.80;68.00;;;;;;5015079;28;20492;-47
2021/01/16 11:24:32;;;;;;;3.88;2.90;;;16.70;67.30;;;;;;5015055;28;20037;-46
2021/01/16 11:27:02;;;;;;;3.78;2.47;;;16.80;65.40;;;;;;5015338;28;20389;-45
2021/01/16 11:29:40;;;;;;;2.85;2.47;;;16.80;64.80;;;;;;5014987;28;20022;-46
2021/01/16 11:32:17;;;;;;;3.88;2.90;;;16.80;62.30;;;;;;5015139;28;20037;-47
2021/01/16 11:35:01;;;;;;;5.95;2.75;;;16.70;63.60;;;;;;5016101;28;20046;-46
2021/01/16 11:37:56;;;;;;;3.25;2.78;;;16.70;64.30;;;;;;5014962;28;20030;-47
2021/01/16 11:40:31;;;;;;;5.95;2.70;;;16.60;65.40;;;;;;5014945;28;20117;-48
2021/01/16 11:43:04;;;;;;;3.45;2.65;;;16.50;65.90;;;;;;5014983;28;20033;-47
2021/01/16 11:45:30;;;;;;;5.05;3.10;;;16.50;66.50;;;;;;5014668;28;20026;-47
2021/01/16 11:47:57;;;;;;;2.78;2.30;;;16.50;67.60;;;;;;5014566;28;20117;-47
2021/01/16 11:50:26;;;;;;;3.83;2.58;;;16.40;67.40;;;;;;5014854;28;20026;-49
2021/01/16 11:52:52;;;;;;;2.88;2.63;;;16.40;67.50;;;;;;5014204;28;20034;-48
2021/01/16 11:55:18;;;;;;;3.22;2.10;;;16.40;68.20;;;;;;5014740;28;20153;-47
2021/01/16 11:57:44;;;;;;;5.03;2.60;;;16.40;69.10;;;;;;5014568;28;20089;-47
2021/01/16 12:00:12;;;;;;;2.58;2.38;;;16.40;68.80;;;;;;5014600;28;20030;-47
2021/01/16 12:02:39;;;;;;;3.10;2.80;;;16.40;68.40;;;;;;5014216;28;20026;-46
2021/01/16 12:05:18;;;;;;;2.42;2.22;;;16.50;68.00;;;;;;5014410;28;20026;-47
2021/01/16 12:07:51;;;;;;;2.65;2.45;;;16.30;68.30;;;;;;5014293;28;20030;-47
2021/01/16 12:10:21;;;;;;;3.00;2.53;;;16.40;68.50;;;;;;5014526;28;20026;-46
2021/01/16 12:12:48;;;;;;;;;;;16.30;68.40;;;;;;5014845;28;20064;-45
2021/01/16 12:15:28;;;;;;;2.45;2.25;;;16.30;68.10;;;;;;5014124;28;19905;-45
2021/01/16 12:17:55;;;;;;;2.30;2.10;;;16.30;67.90;;;;;;5014301;28;20129;-45
2021/01/16 12:20:23;;;;;;;3.30;2.33;;;16.30;66.30;;;;;;5014284;28;20041;-46
2021/01/16 12:22:54;;;;;;;5.25;2.47;;;16.30;66.90;;;;;;5014250;28;20018;-45
2021/01/16 12:25:21;;;;;;;3.15;2.33;;;16.30;66.20;;;;;;5014273;28;20029;-46
2021/01/16 12:27:51;;;;;;;2.53;2.30;;;16.20;66.00;;;;;;5013953;28;20496;-46
2021/01/16 12:30:21;;;;;;;4.15;2.33;;;16.20;67.70;;;;;;5014171;28;20041;-48
2021/01/16 12:32:47;;;;;;;;;;;16.20;68.40;;;;;;5014515;28;20052;-46
2021/01/16 12:35:14;;;;;;;4.20;2.80;;;16.20;68.40;;;;;;5014825;28;19917;-46
2021/01/16 12:37:42;;;;;;;5.15;2.38;;;16.10;68.50;;;;;;5013480;28;20514;-47
2021/01/16 12:40:22;;;;;;;2.20;2.00;;;16.10;68.90;;;;;;5013928;28;20120;-46
2021/01/16 12:42:48;;;;;;;2.17;1.98;;;16.20;69.20;;;;;;5013938;28;20028;-45
2021/01/16 12:45:16;;;;;;;2.17;1.98;;;16.10;68.40;;;;;;5013977;28;20041;-46
2021/01/16 12:47:43;;;;;;;2.15;1.95;;;16.20;69.80;;;;;;5013951;28;20033;-48
2021/01/16 12:50:10;;;;;;;2.83;2.58;;;16.20;69.40;;;;;;5013850;28;20081;-48
2021/01/16 12:52:36;;;;;;;2.50;2.30;;;16.20;69.30;;;;;;5013613;28;20033;-48
2021/01/16 12:55:05;;;;;;;2.40;1.92;;;16.20;69.30;;;;;;5013787;28;20069;-48
2021/01/16 12:57:37;;;;;;;4.47;1.92;;;16.20;69.20;;;;;;5013505;28;20030;-47
2021/01/16 13:00:08;;;;;;;2.45;2.25;;;16.20;69.40;;;;;;5013525;28;20430;-47
2021/01/16 13:02:33;;;;;;;;;;;16.20;69.70;;;;;;5014004;28;20030;-46
2021/01/16 13:05:02;;;;;;;2.15;1.95;;;16.20;69.50;;;;;;5012563;28;20249;-46
2021/01/16 13:07:29;;;;;;;2.40;2.20;;;16.20;69.60;;;;;;5013354;28;20022;-46